Предлагаем Вашему вниманию английскую версию страницы: AUTOTAF.ME USNN - aviation weather forecast Nizhnevartovsk

AUTOTAF USNN - авиапрогноз Нижневартовск

Сегодня рассвет 02:35 UTC, восход солнца 03:26 UTC,
местный полдень 07:06 UTC, заход солнца 10:46 UTC,
наступление темноты 11:37 UTC.

Краткий прогноз USNN на 9 часов

AUTOTAF.ME USNN 262000Z 2621/2706 15004MPS 1500 SN OVC007    
  FM270000 VRB02MPS 9999 -SN OVC007 
  FM270300 36003MPS 1000 BR BKN008 
  FM270600 35004MPS 9999 BKN009

Детальный прогноз USNN на 24 часа

AUTOTAF.ME USNN 262000Z 2621/2721 15004MPS 1500 SN OVC007 TXM24/2621Z TNM35/2718Z  
  FM270000 VRB02MPS 9999 -SN OVC007 
  FM270300 36003MPS 1000 BR BKN008 
  FM270600 35004MPS 9999 BKN009  
  FM271200 33003MPS 1000 BR BKN010 
  BECMG 2713/2715 OVC111  
  BECMG 2716/2718 SCT010  
  FM272100 VRB02MPS 9999 SCT010

Подробный табличный прогноз

Время (UTC) miniAUTOTAF на 3 ч WX FZLVL
M AGL
ICE TURB Т
(°С)
Тd
(°С)
f(%) QNH
(гПа)
WIND/T
18 15006MPS 1000 SN OVC008 SN SFC MOD FL10/FL170 MOD FL20/FL40 -25 -28 74 1016 ...
21 15004MPS 1500 SN OVC007 SN SFC MOD FL10/FL170 -24 -27 75 1014 ...
27.01.2021
00 VRB02MPS 9999 -SN OVC007 -SN SFC MOD FL10/FL150 -25 -28 76 1014 ...
03 36003MPS 1000 BR BKN008 BR SFC MOD FL10/FL20 -28 -31 74 1016 ...
06 35004MPS 9999 BKN009 SFC MOD FL20/FL30 -28 -32 73 1019 ...
09 33004MPS 9999 BKN009 SFC -28 -32 71 1023 ...
12 33003MPS 1000 BR BKN010 BR SFC -31 -34 71 1026 ...
15 35003MPS 1000 BR OVC111 BR SFC MOD FL120/FL130 -33 -37 70 1028 ...
18 VRB02MPS 1000 BR SCT010 BR SFC MOD FL110/FL150 -35 -38 70 1029 ...
21 VRB02MPS 9999 SCT010 SFC MOD FL70/FL90 -34 -37 70 1029 ...
28.01.2021
00 VRB02MPS 9999 OVC011 SFC MOD FL20/FL40 -31 -35 69 1029 ...
03 11004MPS 9999 OVC010 SFC MOD FL20/FL30 -30 -34 71 1027 ...
06 12006MPS 9999 -SN OVC010 -SN SFC MOD FL20/FL170 -28 -32 71 1025 ...
09 12008MPS 1500 SN BLSN OVC009 SN BLSN SFC MOD FL90/FL170 MOD FL20/FL30 -26 -29 73 1020 ...
12 12007MPS 0800 +SN OVC008 +SN SFC MOD FL90/FL170 MOD FL20/FL30 -25 -28 74 1017 ...
15 11006MPS 1000 SN OVC008 SN SFC MOD FL170/FL180 MOD FL20/FL30 -24 -27 75 1015 ...


Широта 60.94986°, долгота 76.48295°, высота 54 м абс.
Средняя высота рельефа местности 43 м абс.
Прогнозы обновляются четыре раза в сутки: в 02, 08, 14, 20 ч всемирного времени.


Выбрать прогноз по другой модели Нижневартовск
Онлайн-сводка гроз по Нижневартовск (для РФ и ближнего зарубежья)
Карта фактических гроз в окрестностях Нижневартовск
Динамические прогностические карты (ventusky.com)
Прогностическая карта высоты нижней границы облаков по Нижневартовск (windy.com)
Выбрать другой город

Прогноз предназначен для личного научно-познавательного использования частными лицами
и не предназначен для принятия важных решений и выполнения реальных полётов воздушных судов

При копировании или ином использовании любых материалов данного сайта ссылка на © meteocenter.asia обязательна.

0.67/1.1